Friendsville, Tennessee
Current Conditions -  °F | °C
As of 7:53 PM on Monday 22 Dec 2014 (Local Time) from KTYS Reporting Station
Broken Clouds Broken Clouds  
Wind Chill: 51°   Ceiling: 11000
Heat Index: 51°   Visibility: 10mi
Dew Point: 44°   Wind: 5mph
Humidity: 77%   Direction: 320°NW
Pressure: 29.82"   Gusts: NA
Location:  35.76°N, 84.14°W
Report Text: KTYS 230053Z 32004KT 10SM SCT041 BKN110 11/07 A2982 RMK AO2 SLP097 T01060067
Loading
Personal Weather Stations






























Interactive Weather Map New forecast layout! Learn more

10-Day Weather Forecast

Advertisements
Track Severe Weather on mobile